createdAt,value
2019-04-12T05:26:02.419Z,6.07
2019-04-12T05:27:02.998Z,6.06
2019-04-12T07:15:35.824Z,8.60
2019-04-12T07:42:55.049Z,8.66
2019-04-12T07:43:32.086Z,8.54
2019-04-12T07:44:31.834Z,8.26
2019-04-12T07:45:32.136Z,8.20
2019-04-12T07:46:31.781Z,8.15
2019-04-12T07:47:31.666Z,8.08
2019-04-12T07:48:31.447Z,8.07
2019-04-12T07:49:31.580Z,7.97
2019-04-12T10:37:11.888Z,9.52
2019-04-12T10:38:11.963Z,9.23
2019-04-12T10:39:11.876Z,9.09
2019-04-12T10:40:11.911Z,9.13
2019-04-12T10:41:11.931Z,9.12
2019-04-12T10:42:11.940Z,8.88
2019-04-12T10:43:11.918Z,8.72
2019-04-12T10:44:11.994Z,8.65
2019-04-12T10:45:12.024Z,8.84
2019-04-12T10:46:12.031Z,8.86
2019-04-12T10:47:12.045Z,8.87
2019-04-12T10:48:12.053Z,8.73
2019-04-12T10:49:12.045Z,8.54
2019-04-12T10:50:12.048Z,8.36
2019-04-12T10:51:12.045Z,8.28
2019-04-12T10:52:12.082Z,8.02
2019-04-12T10:53:12.163Z,8.12
2019-04-12T10:54:12.063Z,8.21
2019-04-12T10:55:11.846Z,8.28
2019-04-12T10:56:12.099Z,8.32
2019-04-12T10:57:11.847Z,8.22
2019-04-12T10:58:12.187Z,8.29
2019-04-12T10:59:12.157Z,8.47
2019-04-12T11:00:11.471Z,8.48
2019-04-12T11:01:11.549Z,8.60
2019-04-12T11:02:11.790Z,8.63
2019-04-12T11:03:11.610Z,8.63
2019-04-12T11:04:11.580Z,8.69
2019-04-12T11:05:11.559Z,8.72
2019-04-12T11:06:11.578Z,8.51
2019-04-12T11:07:11.567Z,8.39
2019-04-12T11:08:11.602Z,8.39
2019-04-12T11:09:11.597Z,8.20
2019-04-12T11:10:11.610Z,8.25
2019-04-12T11:11:11.623Z,8.32
2019-04-12T11:12:11.681Z,8.30
2019-04-12T11:13:13.181Z,8.44
2019-04-12T11:14:11.721Z,8.58
2019-04-12T11:15:21.311Z,8.68
2019-04-12T11:16:11.729Z,8.86
2019-04-12T11:17:11.705Z,9.05
2019-04-12T11:18:12.681Z,9.10
2019-04-12T11:19:11.765Z,9.15
2019-04-12T11:20:11.801Z,9.21
2019-04-12T11:21:11.754Z,9.28
2019-04-12T11:22:11.804Z,9.15
2019-04-12T11:23:11.827Z,9.04
2019-04-12T11:24:11.853Z,8.97
2019-04-12T11:25:11.812Z,9.06
2019-04-12T11:26:11.864Z,9.18
2019-04-12T11:27:11.878Z,9.40
2019-04-12T11:28:11.881Z,9.42
2019-04-12T11:29:17.141Z,9.56
2019-04-12T11:30:11.899Z,9.56
2019-04-12T11:31:11.961Z,9.49
2019-04-12T11:32:11.963Z,9.24
2019-04-12T11:33:11.985Z,9.09
2019-04-12T11:34:11.932Z,8.71
2019-04-12T11:35:11.975Z,8.65
2019-04-12T11:36:11.963Z,8.75
2019-04-12T11:37:11.973Z,8.75
2019-04-12T11:38:11.988Z,8.90
2019-04-12T11:39:12.003Z,8.84
2019-04-12T11:40:12.021Z,8.68
2019-04-12T11:41:12.078Z,8.66
2019-04-12T11:42:12.054Z,8.53
2019-04-12T11:43:12.061Z,8.60
2019-04-12T11:44:12.099Z,8.66
2019-04-12T11:45:12.089Z,8.72
2019-04-12T11:46:12.146Z,8.87
2019-04-12T11:47:12.112Z,8.69
2019-04-12T11:48:12.198Z,8.55
2019-04-12T11:49:12.161Z,8.50
2019-04-12T11:50:12.247Z,8.44
2019-04-12T11:51:12.244Z,8.45
2019-04-12T11:52:12.269Z,8.69
2019-04-12T11:53:12.228Z,8.57
2019-04-12T11:54:12.212Z,8.55
2019-04-12T11:55:12.246Z,8.58
2019-04-12T11:56:12.302Z,8.42
2019-04-12T11:57:12.322Z,8.65
2019-04-12T11:58:12.263Z,8.65
2019-04-12T11:59:12.334Z,8.58
2019-04-12T12:00:12.335Z,8.69
2019-04-12T12:01:12.326Z,8.88
2019-04-12T12:02:12.328Z,8.83
2019-04-12T12:03:12.404Z,8.90
2019-04-12T12:04:12.383Z,8.91
2019-04-12T12:05:12.377Z,8.83
2019-04-12T12:06:12.442Z,8.87
2019-04-12T12:07:12.475Z,8.75
2019-04-12T12:08:12.414Z,8.83
2019-04-12T12:09:12.443Z,8.73
2019-04-12T12:10:12.441Z,8.84
2019-04-12T12:11:12.518Z,8.94
2019-04-12T12:12:12.474Z,9.06
2019-04-12T12:13:12.502Z,9.18
2019-04-12T12:14:12.568Z,9.27
2019-04-12T12:15:12.526Z,9.45
2019-04-12T12:16:15.024Z,9.46
2019-04-12T12:17:12.547Z,9.39
2019-04-12T12:18:12.544Z,9.25
2019-04-12T12:19:12.553Z,9.25
2019-04-12T12:20:12.610Z,9.28
2019-04-12T12:21:12.581Z,9.43
2019-04-12T12:22:12.699Z,9.40
2019-04-12T12:23:12.707Z,9.43
2019-04-12T12:24:12.717Z,9.43
2019-04-12T12:25:12.748Z,9.40
2019-04-12T12:26:12.672Z,9.39
2019-04-12T12:27:12.773Z,9.12
2019-04-12T12:28:12.745Z,9.20
2019-04-12T12:29:12.726Z,9.02
2019-04-12T12:30:12.783Z,8.90
2019-04-12T12:31:12.782Z,8.94
2019-04-12T12:32:12.741Z,8.88
2019-04-12T12:33:12.795Z,8.91
2019-04-12T12:34:12.839Z,9.02
2019-04-12T12:35:12.823Z,9.20
2019-04-12T12:36:12.824Z,9.18
2019-04-12T12:37:12.875Z,9.34
2019-04-12T12:38:12.891Z,9.63
2019-04-12T12:39:12.851Z,9.85
2019-04-12T12:40:12.881Z,9.96
2019-04-12T12:41:12.909Z,10.14
2019-04-12T12:42:12.983Z,10.22
2019-04-12T12:43:12.908Z,10.33
2019-04-12T12:44:12.943Z,10.37
2019-04-12T12:45:12.942Z,10.42
2019-04-12T12:46:12.940Z,10.39
2019-04-12T12:47:12.990Z,10.52
2019-04-12T12:48:13.031Z,10.10
2019-04-12T12:49:13.070Z,10.06
2019-04-12T12:50:13.001Z,9.94
2019-04-12T12:51:13.043Z,10.09
2019-04-12T12:52:13.099Z,10.09
2019-04-12T12:53:13.123Z,10.00
2019-04-12T12:54:13.076Z,10.12
2019-04-12T12:55:13.080Z,10.21
2019-04-12T12:56:13.193Z,10.04
2019-04-12T12:57:13.112Z,9.89
2019-04-12T12:58:13.117Z,9.78
2019-04-12T12:59:13.134Z,9.68
2019-04-12T13:00:13.192Z,9.45
2019-04-12T13:01:13.169Z,9.40
2019-04-12T13:02:13.220Z,9.18
2019-04-12T13:03:13.242Z,9.09
2019-04-12T13:04:13.207Z,9.06
2019-04-12T13:05:13.264Z,8.97
2019-04-12T13:06:13.303Z,8.97
2019-04-12T13:07:13.334Z,8.97
2019-04-12T13:08:13.303Z,8.87
2019-04-12T13:09:13.324Z,8.88
2019-04-12T13:10:13.322Z,8.87
2019-04-12T13:11:13.446Z,8.71
2019-04-12T13:12:13.404Z,8.63
2019-04-12T13:13:13.417Z,8.54
2019-04-12T13:14:13.384Z,8.47
2019-04-12T13:15:13.407Z,8.35
2019-04-12T13:16:13.385Z,8.22
2019-04-12T13:17:13.422Z,8.12
2019-04-12T13:18:13.413Z,8.08
2019-04-12T13:19:13.431Z,8.14
2019-04-12T13:20:13.441Z,8.00
2019-04-12T13:21:13.529Z,8.12
2019-04-12T13:22:13.467Z,8.00
2019-04-12T13:23:13.524Z,7.93
2019-04-12T13:24:13.546Z,7.77
2019-04-12T13:25:13.511Z,7.75
2019-04-12T13:26:13.539Z,7.62
2019-04-12T13:27:13.567Z,7.82
2019-04-12T13:28:13.554Z,7.79
2019-04-12T13:29:13.606Z,7.81
2019-04-12T13:30:13.663Z,7.89
2019-04-12T13:31:13.630Z,7.85
2019-04-12T13:32:13.633Z,7.87
2019-04-12T13:33:13.641Z,7.87
2019-04-12T13:34:13.655Z,8.02
2019-04-12T13:35:13.665Z,8.02
2019-04-12T13:36:13.784Z,7.97
2019-04-12T13:37:13.737Z,7.84
2019-04-12T13:38:13.724Z,7.81
2019-04-12T13:39:13.703Z,7.67
2019-04-12T13:40:13.711Z,7.41
2019-04-12T13:41:13.755Z,7.37
2019-04-12T13:42:13.807Z,7.22
2019-04-12T13:43:13.799Z,7.20
2019-04-12T13:44:13.839Z,7.32
2019-04-12T13:45:13.838Z,7.22
2019-04-12T13:46:13.842Z,7.09
2019-04-12T13:47:13.795Z,7.07
2019-04-12T13:48:13.814Z,7.08
2019-04-12T13:49:13.826Z,7.02
2019-04-12T13:50:13.844Z,6.95
2019-04-12T13:51:13.898Z,6.95
2019-04-12T13:52:13.928Z,6.95
2019-04-12T13:53:13.877Z,6.83
2019-04-12T13:54:13.921Z,6.87
2019-04-12T13:55:13.939Z,6.73
2019-04-12T13:56:13.913Z,6.79
2019-04-12T13:57:13.985Z,6.84
2019-04-12T13:58:13.952Z,6.87
2019-04-12T13:59:13.987Z,6.90
2019-04-12T14:00:19.245Z,6.94
2019-04-12T14:01:13.977Z,6.95
2019-04-12T14:02:14.001Z,6.98
2019-04-12T14:03:14.039Z,6.90
2019-04-12T14:04:15.743Z,6.81
2019-04-12T14:05:14.093Z,6.89
2019-04-12T14:06:14.113Z,6.89
2019-04-12T14:07:14.110Z,6.99
2019-04-12T14:08:14.069Z,7.15
2019-04-12T14:09:14.125Z,7.45
2019-04-12T14:10:14.174Z,7.45
2019-04-12T14:11:14.133Z,7.55
2019-04-12T14:12:14.154Z,7.63
2019-04-12T14:13:14.127Z,7.79
2019-04-12T14:14:14.150Z,7.82
2019-04-12T14:15:14.197Z,7.78
2019-04-12T14:16:14.195Z,7.89
2019-04-12T14:17:14.188Z,7.97
2019-04-12T14:18:14.265Z,8.02
2019-04-12T14:19:14.235Z,8.00
2019-04-12T14:20:14.228Z,8.12
2019-04-12T14:21:14.259Z,8.11
2019-04-12T14:22:14.341Z,8.18
2019-04-12T14:23:14.286Z,8.18
2019-04-12T14:24:14.333Z,8.17
2019-04-12T14:25:14.282Z,8.28
2019-04-12T14:26:14.300Z,8.18
2019-04-12T14:27:14.372Z,8.21
2019-04-12T14:28:14.337Z,8.29
2019-04-12T14:29:14.405Z,8.26
2019-04-12T14:30:14.466Z,8.17
2019-04-12T14:31:14.387Z,8.11
2019-04-12T14:32:14.409Z,8.22
2019-04-12T14:33:14.415Z,8.25
2019-04-12T14:34:14.403Z,8.30
2019-04-12T14:35:14.412Z,8.18
2019-04-12T14:36:14.461Z,8.12
2019-04-12T14:37:14.514Z,8.28
2019-04-12T14:38:14.474Z,8.26
2019-04-12T14:39:14.524Z,8.15
2019-04-12T14:40:14.476Z,8.21
2019-04-12T14:41:14.564Z,8.29
2019-04-12T14:42:14.551Z,8.32
2019-04-12T14:43:14.513Z,8.32
2019-04-12T14:44:14.597Z,8.33
2019-04-12T14:45:14.632Z,8.30
2019-04-12T14:46:14.563Z,8.39
2019-04-12T14:47:14.569Z,8.33
2019-04-12T14:48:14.600Z,8.25
2019-04-12T14:49:14.597Z,8.26
2019-04-12T14:50:14.609Z,8.36
2019-04-12T14:51:14.666Z,8.30
2019-04-12T14:52:14.666Z,8.35
2019-04-12T14:53:14.732Z,8.32
2019-04-12T14:54:14.664Z,8.45
2019-04-12T14:55:14.696Z,8.44
2019-04-12T14:56:14.700Z,8.47
2019-04-12T14:57:14.773Z,8.54
2019-04-12T14:58:14.740Z,8.55
2019-04-12T14:59:14.726Z,8.44
2019-04-12T15:00:14.776Z,8.48
2019-04-12T15:01:14.779Z,8.55
2019-04-12T15:02:14.801Z,8.58
2019-04-12T15:03:14.776Z,8.53
2019-04-12T15:04:14.790Z,8.42
2019-04-12T15:05:14.826Z,8.60
2019-04-12T15:06:14.832Z,8.57
2019-04-12T15:07:14.854Z,8.51
2019-04-12T15:08:14.842Z,8.54
2019-04-12T15:09:14.949Z,8.58
2019-04-12T15:10:14.865Z,8.32
2019-04-12T15:11:14.906Z,8.21
2019-04-12T15:12:14.942Z,8.28
2019-04-12T15:13:14.936Z,8.08
2019-04-12T15:14:14.927Z,8.08
2019-04-12T15:15:14.931Z,8.03
2019-04-12T15:16:14.951Z,7.96
2019-04-12T15:17:14.961Z,7.87
2019-04-12T15:18:14.974Z,7.77
2019-04-12T15:19:15.050Z,7.81
2019-04-12T15:20:15.013Z,7.99
2019-04-12T15:21:15.013Z,8.03
2019-04-12T15:22:15.022Z,8.00
2019-04-12T15:23:15.087Z,8.03
2019-04-12T15:24:15.061Z,8.03
2019-04-12T15:25:15.136Z,8.07
2019-04-12T15:26:15.088Z,8.00
2019-04-12T15:27:15.095Z,7.99
2019-04-12T15:28:15.142Z,8.12
2019-04-12T15:29:15.159Z,8.25
2019-04-12T15:30:15.148Z,8.22
2019-04-12T15:31:15.148Z,8.10
2019-04-12T15:32:15.191Z,7.82
2019-04-12T15:33:15.201Z,7.90
2019-04-12T15:34:15.234Z,7.82
2019-04-12T15:35:15.238Z,7.85
2019-04-12T15:36:15.203Z,7.79
2019-04-12T15:37:15.317Z,8.02
2019-04-12T15:38:15.303Z,8.04
2019-04-12T15:39:15.306Z,8.02
2019-04-12T15:40:15.284Z,8.12
2019-04-12T15:41:15.345Z,8.29
2019-04-12T15:42:15.297Z,8.18
2019-04-12T15:43:15.340Z,8.20
2019-04-12T15:44:15.415Z,8.20
2019-04-12T15:45:15.342Z,8.17
2019-04-12T15:46:15.357Z,7.96
2019-04-12T15:47:15.396Z,8.02
2019-04-12T15:48:15.434Z,8.03
2019-04-12T15:49:15.376Z,8.03
2019-04-12T15:50:15.423Z,8.02
2019-04-12T15:51:15.405Z,8.07
2019-04-12T15:52:15.463Z,8.02
2019-04-12T15:53:15.427Z,7.97
2019-04-12T15:54:15.477Z,7.93
2019-04-12T15:55:15.453Z,8.00
2019-04-12T15:56:15.503Z,7.99
2019-04-12T15:57:15.526Z,8.04
2019-04-12T15:58:15.488Z,8.00
2019-04-12T15:59:15.537Z,8.21
2019-04-12T16:00:15.555Z,8.29
2019-04-12T16:01:15.601Z,8.25
2019-04-12T16:02:15.557Z,8.30
2019-04-12T16:03:15.567Z,8.25
2019-04-12T16:04:15.625Z,8.14
2019-04-12T16:05:15.581Z,8.17
2019-04-12T16:06:15.594Z,8.08
2019-04-12T16:07:15.641Z,7.84
2019-04-12T16:08:15.637Z,7.75
2019-04-12T16:09:15.637Z,7.59
2019-04-12T16:10:15.687Z,7.59
2019-04-12T16:11:15.665Z,7.74
2019-04-12T16:12:15.704Z,7.82
2019-04-12T16:13:15.686Z,7.81
2019-04-12T16:14:15.773Z,7.85
2019-04-12T16:15:15.774Z,8.00
2019-04-12T16:16:15.791Z,7.92
2019-04-12T16:17:15.839Z,7.89
2019-04-12T16:18:15.793Z,7.72
2019-04-12T16:19:15.760Z,7.60
2019-04-12T16:20:15.775Z,7.56
2019-04-12T16:21:15.811Z,7.63
2019-04-12T16:22:18.131Z,7.81
2019-04-12T16:23:20.519Z,7.84
2019-04-12T16:24:15.858Z,7.58
2019-04-12T16:25:15.837Z,7.58
2019-04-12T16:26:15.882Z,7.63
2019-04-12T16:27:15.929Z,7.56
2019-04-12T16:28:15.875Z,7.55
2019-04-12T16:29:15.911Z,7.52
2019-04-12T16:30:16.385Z,7.50
2019-04-12T16:31:23.464Z,7.47
2019-04-12T16:32:16.054Z,7.41
2019-04-12T16:33:16.176Z,7.35
2019-04-12T16:34:16.069Z,7.59
2019-04-12T16:35:16.315Z,7.74
2019-04-12T16:36:16.135Z,7.84
2019-04-12T18:29:51.175Z,6.48
2019-04-12T18:30:50.897Z,6.59
2019-04-12T19:32:50.872Z,6.18
2019-04-12T19:33:50.184Z,6.06
2019-04-12T19:34:54.795Z,6.09
2019-04-12T19:35:50.940Z,6.06
2019-04-12T19:36:53.559Z,6.22
2019-04-12T19:37:51.467Z,6.04
2019-04-12T19:38:52.492Z,6.14
2019-04-12T19:39:50.877Z,6.18
2019-04-12T19:40:55.070Z,6.16
2019-04-12T19:43:21.708Z,6.19
2019-04-12T19:44:21.715Z,6.14
2019-04-12T19:45:21.582Z,6.14
2019-04-12T19:46:21.690Z,6.21
2019-04-12T19:47:21.731Z,6.07
2019-04-12T19:48:21.781Z,6.03
2019-04-12T19:49:21.797Z,5.91
2019-04-12T19:50:21.711Z,6.06
2019-04-12T19:51:21.800Z,6.00
2019-04-12T19:52:21.747Z,6.09
2019-04-12T19:53:21.845Z,6.00
2019-04-12T19:54:21.772Z,5.95
2019-04-12T19:55:23.854Z,5.98
2019-04-12T19:56:22.502Z,6.16
2019-04-12T19:57:22.718Z,6.21
2019-04-12T19:58:21.826Z,6.16
2019-04-12T19:59:21.814Z,6.25
2019-04-12T20:00:21.844Z,6.26
2019-04-12T20:01:22.274Z,6.29
2019-04-12T20:02:21.855Z,6.29
2019-04-12T20:06:04.981Z,6.38
2019-04-12T20:07:04.919Z,6.22
2019-04-12T20:08:04.998Z,6.04
2019-04-12T20:09:05.011Z,6.04
2019-04-12T20:10:05.004Z,5.82
2019-04-12T20:11:04.995Z,5.95
2019-04-12T20:12:12.726Z,5.85
2019-04-12T20:13:05.020Z,5.92
2019-04-12T20:14:05.157Z,6.01
2019-04-12T20:15:05.093Z,5.89
2019-04-12T20:16:05.035Z,5.83
2019-04-12T20:17:05.174Z,5.92
2019-04-12T20:18:05.111Z,5.88
2019-04-12T20:19:05.139Z,5.95
2019-04-12T20:20:05.004Z,5.93
2019-04-12T20:21:06.055Z,5.89
2019-04-12T20:22:05.162Z,5.95
2019-04-12T20:23:05.169Z,5.92
2019-04-12T20:24:05.160Z,6.01
2019-04-12T20:25:05.233Z,5.95
2019-04-12T20:26:05.244Z,5.96
2019-04-12T20:27:05.278Z,6.04
2019-04-12T20:28:05.150Z,5.95
2019-04-12T20:29:05.156Z,5.86
2019-04-12T20:30:05.232Z,5.88
2019-04-12T20:31:05.968Z,5.82
2019-04-12T20:32:05.243Z,5.93
2019-04-12T20:33:05.245Z,5.91
2019-04-12T20:34:06.652Z,5.93
2019-04-12T20:35:06.070Z,5.89
2019-04-12T20:36:05.822Z,5.82
2019-04-12T20:37:05.564Z,5.77
2019-04-12T20:38:05.988Z,5.67
2019-04-12T20:39:05.971Z,5.66
2019-04-12T20:40:05.665Z,5.56
2019-04-12T20:41:06.120Z,5.60
2019-04-12T20:42:18.540Z,5.50
2019-04-12T20:45:29.193Z,5.55
2019-04-12T20:46:20.692Z,5.53
2019-04-12T20:47:06.938Z,5.41
2019-04-12T20:48:06.062Z,5.49
2019-04-12T20:49:06.370Z,5.35
2019-04-12T20:50:07.435Z,5.34
2019-04-12T20:51:08.371Z,5.35
2019-04-12T20:52:07.204Z,5.45
2019-04-12T20:53:06.831Z,5.32
2019-04-12T20:54:07.096Z,5.35
2019-04-12T20:55:07.265Z,5.35
2019-04-12T20:57:48.766Z,5.46
2019-04-12T20:58:48.798Z,5.49
2019-04-12T20:59:48.778Z,5.40
2019-04-12T21:00:48.808Z,5.35
2019-04-12T21:01:48.819Z,5.32
2019-04-12T21:02:48.844Z,5.37
2019-04-12T21:03:48.786Z,5.27
2019-04-12T21:04:48.812Z,5.20
2019-04-12T21:05:48.878Z,5.20
2019-04-12T21:06:49.294Z,5.27
2019-04-12T21:07:48.913Z,5.31
2019-04-12T21:08:48.932Z,5.28
2019-04-12T21:09:48.916Z,5.46
2019-04-12T21:10:48.831Z,5.48
2019-04-12T21:11:49.699Z,5.50
2019-04-12T21:12:48.974Z,5.55
2019-04-12T21:13:48.962Z,5.53
2019-04-12T21:14:50.642Z,5.52
2019-04-12T21:15:48.964Z,5.63
2019-04-12T21:16:48.955Z,5.67
2019-04-12T21:17:49.022Z,5.67
2019-04-12T21:18:50.095Z,5.71
2019-04-12T21:19:48.967Z,5.71
2019-04-12T21:20:49.027Z,5.77
2019-04-12T21:21:49.047Z,5.81
2019-04-12T21:22:49.014Z,5.66
2019-04-12T21:23:49.097Z,5.64
2019-04-12T21:24:49.056Z,5.67
2019-04-12T21:25:49.076Z,5.60
2019-04-12T21:26:49.145Z,5.53
2019-04-12T21:27:49.174Z,5.64
2019-04-12T21:28:49.111Z,5.60
2019-04-12T21:29:49.102Z,5.55
2019-04-12T21:30:49.170Z,5.57
2019-04-12T21:31:49.202Z,5.56
2019-04-12T21:32:49.170Z,5.71
2019-04-12T21:33:49.098Z,5.66
2019-04-12T21:34:49.157Z,5.71
2019-04-12T21:35:49.182Z,5.59
2019-04-12T21:36:49.317Z,5.68
2019-04-12T21:37:49.223Z,5.68
2019-04-12T21:38:49.306Z,5.71
2019-04-12T21:39:49.222Z,5.70
2019-04-12T21:40:50.243Z,5.67
2019-04-12T21:41:49.279Z,5.68
2019-04-12T21:42:49.274Z,5.60
2019-04-12T21:43:49.293Z,5.64
2019-04-12T21:44:49.307Z,5.71
2019-04-12T21:45:49.296Z,5.71
2019-04-12T21:46:49.346Z,5.75
2019-04-12T21:47:49.383Z,5.71
2019-04-12T21:48:49.335Z,5.77
2019-04-12T21:49:49.368Z,5.73
2019-04-12T21:50:49.430Z,5.67
2019-04-12T21:51:49.321Z,5.81
2019-04-12T21:52:49.385Z,5.70
2019-04-12T21:53:50.375Z,5.75
2019-04-12T21:54:49.839Z,5.77
2019-04-12T21:55:51.495Z,5.78
2019-04-12T21:56:49.436Z,5.74
2019-04-12T21:57:49.512Z,5.71
2019-04-12T21:58:49.459Z,5.74
2019-04-12T21:59:49.446Z,5.75
2019-04-12T22:01:06.488Z,5.85
2019-04-12T22:03:50.537Z,5.55
2019-04-12T22:04:50.315Z,5.64
2019-04-12T22:05:52.577Z,5.67
2019-04-12T22:08:32.813Z,5.56
2019-04-12T22:09:32.790Z,5.60
2019-04-12T22:10:32.758Z,5.50
2019-04-12T22:11:32.804Z,5.46
2019-04-12T22:12:32.861Z,5.49
2019-04-12T22:13:32.798Z,5.37
2019-04-12T22:14:32.910Z,5.22
2019-04-12T22:15:33.856Z,5.17
2019-04-12T22:16:33.076Z,4.99
2019-04-12T22:17:32.917Z,5.09
